M I D A S
Marine Information and Data Acquisition System
Tripno 28 of the Zeeleeuw from 2001-06-14 08:55:00 to 2001-06-15 16:10:00
Back to CruiseResearch ActivitiesStationsMapUnderway DataData graphs

EquipmentUnitsComment
TimeDGPSUTC
LatitudeDGPSDM.mWGS84
LongitudeDGPSDM.mWGS84
HeadingGyrodeg 
SOGDGPSknotsSpeed over ground
COGDGPSdegCourse over ground
DepthEcho soundermeters200 kHz
Missing or incorrect values are displayed as -999
Navigation data collected by the RV Zeeleeuw from 2001-06-14 08:55:00 to 2001-06-15 16:10:00
                                                                                    Next 1000 lines
Time Latitude Longitude Heading SOG COG Depth
2001-06-14 08:55:07 51°24.738 3°28.894 81.5 10.3 77.5 15.7
2001-06-14 08:55:12 51°24.741 3°28.916 80.8 10.3 76.8 15.6
2001-06-14 08:55:17 51°24.745 3°28.938 81.2 10.3 76.7 15.7
2001-06-14 08:55:22 51°24.748 3°28.961 81.8 10.3 77.5 15.9
2001-06-14 08:55:27 51°24.75 3°28.983 82.8 10.3 78.1 16
2001-06-14 08:55:32 51°24.753 3°29.005 83 10.3 78.6 16.2
2001-06-14 08:55:37 51°24.756 3°29.027 82.8 10.3 78.6 16.3
2001-06-14 08:55:42 51°24.759 3°29.05 83.2 10.2 78.9 16.3
2001-06-14 08:55:47 51°24.761 3°29.072 83.7 10.2 79.2 16.2
2001-06-14 08:55:52 51°24.764 3°29.094 84.2 10.2 79.6 16.1
2001-06-14 08:55:57 51°24.766 3°29.117 84.5 10.2 80.2 16.1
2001-06-14 08:56:02 51°24.769 3°29.139 84.7 10.2 80.5 16.2
2001-06-14 08:56:07 51°24.771 3°29.161 85 10.2 80.7 16.4
2001-06-14 08:56:12 51°24.773 3°29.184 84.5 10.2 80.2 16.5
2001-06-14 08:56:17 51°24.776 3°29.206 84 10.3 79.9 16.7
2001-06-14 08:56:22 51°24.779 3°29.228 83.8 10.3 79.4 16.7
2001-06-14 08:56:27 51°24.781 3°29.251 84.2 10.3 79.6 16.6
2001-06-14 08:56:32 51°24.784 3°29.273 84 10.3 79.8 16.6
2001-06-14 08:56:37 51°24.786 3°29.296 84.5 10.3 80.2 16.7
2001-06-14 08:56:42 51°24.788 3°29.319 84.8 10.4 80.9 16.8
2001-06-14 08:56:47 51°24.791 3°29.342 84.8 10.4 81 17
2001-06-14 08:56:52 51°24.793 3°29.364 84.7 10.4 80.9 17.1
2001-06-14 08:56:57 51°24.795 3°29.387 85 10.5 80.9 17.1
2001-06-14 08:57:01 51°24.797 3°29.406 84.8 10.5 80.7 17.1
2001-06-14 08:57:06 51°24.799 3°29.428 85 10.4 80.6 17
2001-06-14 08:57:12 51°24.803 3°29.456 84.7 10.4 80.3 16.9
2001-06-14 08:57:17 51°24.806 3°29.478 83.2 10.5 79 16.7
2001-06-14 08:57:21 51°24.808 3°29.496 82 10.4 77.8 16.4
2001-06-14 08:57:26 51°24.811 3°29.519 82.2 10.4 77.2 16.4
2001-06-14 08:57:32 51°24.815 3°29.546 82.3 10.3 77.4 16.6
2001-06-14 08:57:36 51°24.818 3°29.563 82.8 10.3 77.8 17.2
2001-06-14 08:57:41 51°24.821 3°29.586 83.5 10.3 78 17.8
2001-06-14 08:57:46 51°24.824 3°29.608 83.2 10.3 78.2 18.4
2001-06-14 08:57:52 51°24.828 3°29.635 82.5 10.3 77.3 18.7
2001-06-14 08:57:57 51°24.831 3°29.657 82.5 10.3 76.9 19
2001-06-14 08:58:02 51°24.834 3°29.679 82.7 10.3 76.4 19.2
2001-06-14 08:58:07 51°24.838 3°29.701 82 10.3 76.1 19.3
2001-06-14 08:58:12 51°24.841 3°29.723 82.2 10.3 76 19.4
2001-06-14 08:58:16 51°24.844 3°29.741 82.3 10.3 76.2 19.4
2001-06-14 08:58:22 51°24.848 3°29.767 83 10.2 76.8 19.4
2001-06-14 08:58:27 51°24.85 3°29.79 83.8 10.2 78 19.3
2001-06-14 08:58:32 51°24.853 3°29.812 84.8 10.2 79.4 19.2
2001-06-14 08:58:37 51°24.855 3°29.834 85.7 10.2 80.2 18.9
2001-06-14 08:58:42 51°24.857 3°29.857 86.3 10.2 80.9 18.4
2001-06-14 08:58:47 51°24.859 3°29.879 86.2 10.2 81 18
2001-06-14 08:58:52 51°24.862 3°29.901 85 10.2 79.8 18.1
2001-06-14 08:58:57 51°24.865 3°29.924 83.3 10.2 78.7 18.7
2001-06-14 08:59:02 51°24.868 3°29.946 82.5 10.2 77.5 19.5
2001-06-14 08:59:07 51°24.872 3°29.968 82.5 10.2 76.9 -999
2001-06-14 08:59:13 51°24.876 3°29.994 82.5 10.2 76.4 -999
2001-06-14 08:59:18 51°24.879 3°30.016 82.5 10.2 76.2 -999
2001-06-14 08:59:23 51°24.883 3°30.038 82.2 10.3 75.7 -999
2001-06-14 08:59:28 51°24.887 3°30.06 81.8 10.3 75.4 -999
2001-06-14 08:59:33 51°24.89 3°30.082 81.3 10.3 74.9 -999
2001-06-14 08:59:37 51°24.893 3°30.1 81.3 10.3 75 -999
2001-06-14 08:59:43 51°24.897 3°30.127 82.3 10.3 75.7 -999
2001-06-14 08:59:48 51°24.9 3°30.149 83.2 10.3 76.8 -999
2001-06-14 08:59:53 51°24.903 3°30.171 84.2 10.3 77.8 -999
2001-06-14 08:59:58 51°24.906 3°30.193 84.3 10.3 78.6 -999
2001-06-14 09:00:02 51°24.908 3°30.211 83.8 10.3 78.5 19.2
2001-06-14 09:00:07 51°24.911 3°30.234 83.2 10.3 78.5 17.9
2001-06-14 09:00:12 51°24.914 3°30.256 83.8 10.3 79.2 17.7
2001-06-14 09:00:17 51°24.916 3°30.279 84.7 10.3 79.9 -999
2001-06-14 09:00:22 51°24.918 3°30.301 85.8 10.2 81.3 -999
2001-06-14 09:00:28 51°24.92 3°30.328 87 10.3 82.4 -999
2001-06-14 09:00:33 51°24.922 3°30.351 87.5 10.3 83.1 -999
2001-06-14 09:00:37 51°24.923 3°30.369 87.8 10.3 83.4 -999
2001-06-14 09:00:42 51°24.925 3°30.392 87.5 10.4 83.4 -999
2001-06-14 09:00:48 51°24.927 3°30.42 87.2 10.4 82.9 -999
2001-06-14 09:00:53 51°24.929 3°30.443 86.7 10.5 82.5 -999
2001-06-14 09:00:58 51°24.931 3°30.466 86.2 10.5 82 -999
2001-06-14 09:01:03 51°24.933 3°30.489 86.3 10.5 81.9 -999
2001-06-14 09:01:07 51°24.935 3°30.507 86.7 10.5 81.9 -999
2001-06-14 09:01:13 51°24.937 3°30.535 87.3 10.5 82.6 -999
2001-06-14 09:01:17 51°24.939 3°30.554 86.8 10.5 82.3 -999
2001-06-14 09:01:23 51°24.941 3°30.581 86 10.5 81.8 -999
2001-06-14 09:01:27 51°24.943 3°30.599 85.5 10.5 80.8 -999
2001-06-14 09:01:33 51°24.946 3°30.627 85.7 10.4 80.6 -999
2001-06-14 09:01:38 51°24.948 3°30.649 85.7 10.4 80.5 -999
2001-06-14 09:01:42 51°24.95 3°30.667 85.5 10.4 80.4 -999
2001-06-14 09:01:47 51°24.953 3°30.69 85 10.4 79.9 -999
2001-06-14 09:01:53 51°24.956 3°30.717 84 10.4 78.9 -999
2001-06-14 09:01:58 51°24.96 3°30.739 83 10.4 77.6 -999
2001-06-14 09:02:02 51°24.963 3°30.757 82.2 10.4 76.2 18.8
2001-06-14 09:02:08 51°24.967 3°30.784 81.7 10.3 75.4 -999
2001-06-14 09:02:13 51°24.971 3°30.806 82.2 10.3 75.5 -999
2001-06-14 09:02:18 51°24.974 3°30.828 83 10.3 76.2 -999
2001-06-14 09:02:22 51°24.976 3°30.846 85.3 10.2 78.5 -999
2001-06-14 09:02:28 51°24.978 3°30.873 87.5 10.2 81 -999
2001-06-14 09:02:33 51°24.98 3°30.895 88.2 10.3 82.4 -999
2001-06-14 09:02:38 51°24.982 3°30.918 87.2 10.3 82.4 -999
2001-06-14 09:02:43 51°24.984 3°30.941 86.5 10.3 81.5 -999
2001-06-14 09:02:48 51°24.986 3°30.963 86.7 10.3 81.2 -999
2001-06-14 09:02:53 51°24.989 3°30.986 86.3 10.3 81.1 -999
2001-06-14 09:02:57 51°24.991 3°31.004 86.3 10.4 80.9 -999
2001-06-14 09:03:03 51°24.993 3°31.032 86.2 10.4 80.7 -999
2001-06-14 09:03:07 51°24.995 3°31.05 86 10.3 80.3 -999
2001-06-14 09:03:13 51°24.998 3°31.077 86.2 10.3 80.3 -999
2001-06-14 09:03:18 51°25.001 3°31.099 86.3 10.3 80.2 -999
2001-06-14 09:03:23 51°25.003 3°31.122 86 10.3 80.1 -999
2001-06-14 09:03:27 51°25.006 3°31.14 84.3 10.4 78.5 -999
2001-06-14 09:03:32 51°25.01 3°31.162 82 10.4 76.5 -999
2001-06-14 09:03:38 51°25.015 3°31.189 81 10.4 74.5 -999
2001-06-14 09:03:43 51°25.018 3°31.211 80.5 10.4 74 -999
2001-06-14 09:03:48 51°25.022 3°31.233 81.5 10.4 74.4 -999
2001-06-14 09:03:53 51°25.025 3°31.255 83.7 10.3 76.3 -999
2001-06-14 09:03:58 51°25.027 3°31.278 86.5 10.3 78.5 -999
2001-06-14 09:04:03 51°25.029 3°31.3 88 10.2 81.7 -999
2001-06-14 09:04:07 51°25.03 3°31.318 89 10.3 83.2 -999
2001-06-14 09:04:13 51°25.032 3°31.346 89.3 10.3 84 -999
2001-06-14 09:04:18 51°25.033 3°31.368 89.3 10.3 84.1 -999
2001-06-14 09:04:23 51°25.035 3°31.391 89.2 10.3 84.1 -999
2001-06-14 09:04:28 51°25.037 3°31.414 88.7 10.3 83.7 -999
2001-06-14 09:04:33 51°25.038 3°31.437 88.2 10.4 83.1 -999
2001-06-14 09:04:37 51°25.04 3°31.455 87.7 10.4 82.7 -999
2001-06-14 09:04:42 51°25.042 3°31.478 87.5 10.4 82.5 -999
2001-06-14 09:04:48 51°25.044 3°31.505 88 10.3 82.7 -999
2001-06-14 09:04:53 51°25.046 3°31.528 88.2 10.4 83 -999
2001-06-14 09:04:58 51°25.047 3°31.551 88.7 10.4 83.3 -999
2001-06-14 09:05:03 51°25.048 3°31.573 88.8 10.4 83.4 -999
2001-06-14 09:05:08 51°25.049 3°31.596 88.8 10.4 83.2 -999
2001-06-14 09:05:13 51°25.051 3°31.619 88.3 10.4 82.9 -999
2001-06-14 09:05:17 51°25.053 3°31.637 87.7 10.4 82.3 24.4
2001-06-14 09:05:23 51°25.056 3°31.665 87.5 10.4 81.8 -999
2001-06-14 09:05:27 51°25.058 3°31.683 87.7 10.4 81.7 24.6
2001-06-14 09:05:32 51°25.06 3°31.706 88 10.4 81.8 25
2001-06-14 09:05:37 51°25.062 3°31.728 88 10.4 81.9 25.1
2001-06-14 09:05:42 51°25.064 3°31.751 88 10.3 81.8 25.1
2001-06-14 09:05:47 51°25.066 3°31.774 88.3 10.4 82 25.2
2001-06-14 09:05:52 51°25.068 3°31.797 88.2 10.4 81.8 25.1
2001-06-14 09:05:57 51°25.07 3°31.819 88.3 10.4 81.9 25.2
2001-06-14 09:06:02 51°25.072 3°31.842 88.3 10.4 81.8 25.3
2001-06-14 09:06:07 51°25.074 3°31.865 88.3 10.4 81.8 25.5
2001-06-14 09:06:12 51°25.077 3°31.887 88.2 10.3 81.6 25.6
2001-06-14 09:06:17 51°25.079 3°31.91 88.2 10.4 81.5 25.7
2001-06-14 09:06:21 51°25.081 3°31.928 88.2 10.4 81.4 25.8
2001-06-14 09:06:26 51°25.083 3°31.951 88.2 10.4 81.3 25.8
2001-06-14 09:06:32 51°25.085 3°31.978 88 10.4 81.3 25.8
2001-06-14 09:06:37 51°25.088 3°32.001 88.3 10.4 81.3 25.8
2001-06-14 09:06:42 51°25.089 3°32.024 88.7 10.4 82.1 25.8
2001-06-14 09:06:47 51°25.091 3°32.047 89.3 10.4 82.1 25.7
2001-06-14 09:06:52 51°25.093 3°32.07 89 10.4 82.6 25.6
2001-06-14 09:06:57 51°25.095 3°32.093 88.8 10.4 83.1 25.5
2001-06-14 09:07:02 51°25.096 3°32.116 89.3 10.4 83.7 25.4
2001-06-14 09:07:07 51°25.098 3°32.139 88.3 10.4 83.6 25.3
2001-06-14 09:07:12 51°25.1 3°32.161 87.2 10.5 82.4 25.1
2001-06-14 09:07:17 51°25.102 3°32.184 86.7 10.5 81.8 25.2
2001-06-14 09:07:22 51°25.105 3°32.207 85.8 10.5 80.8 25.2
2001-06-14 09:07:27 51°25.107 3°32.23 85.3 10.4 80.3 25.2
2001-06-14 09:07:32 51°25.11 3°32.253 85.2 10.4 79.8 25.2
2001-06-14 09:07:37 51°25.112 3°32.275 85 10.4 79.7 25.2
2001-06-14 09:07:42 51°25.115 3°32.298 84.7 10.4 79 25.2
2001-06-14 09:07:47 51°25.118 3°32.321 84.5 10.4 78.9 25.1
2001-06-14 09:07:52 51°25.121 3°32.343 83.8 10.4 78.1 24.9
2001-06-14 09:07:57 51°25.124 3°32.366 83.7 10.4 77.9 24.9
2001-06-14 09:08:02 51°25.128 3°32.388 83.5 10.4 77.4 24.8
2001-06-14 09:08:07 51°25.131 3°32.411 83.3 10.4 77.3 24.8
2001-06-14 09:08:12 51°25.134 3°32.434 83 10.5 76.9 24.8
2001-06-14 09:08:17 51°25.138 3°32.456 82.8 10.4 76.7 24.8
2001-06-14 09:08:22 51°25.141 3°32.479 83.3 10.4 76.9 24.7
2001-06-14 09:08:27 51°25.144 3°32.501 84 10.4 77.3 24.4
2001-06-14 09:08:32 51°25.147 3°32.524 84.2 10.4 77.9 24
2001-06-14 09:08:37 51°25.15 3°32.546 84 10.4 77.8 23.8
2001-06-14 09:08:42 51°25.153 3°32.569 84.5 10.4 78 23.8
2001-06-14 09:08:47 51°25.156 3°32.592 84 10.4 77.8 23.8
2001-06-14 09:08:52 51°25.159 3°32.614 84.5 10.4 77.9 23.7
2001-06-14 09:08:57 51°25.162 3°32.637 84.7 10.4 77.9 23.6
2001-06-14 09:09:02 51°25.165 3°32.659 84.8 10.3 78 23.6
2001-06-14 09:09:07 51°25.168 3°32.681 84.8 10.3 78.5 23.6
2001-06-14 09:09:12 51°25.17 3°32.704 85.5 10.2 79.7 23.4
2001-06-14 09:09:16 51°25.171 3°32.721 87.5 10.1 81.6 23.2
2001-06-14 09:09:22 51°25.171 3°32.748 91.8 10 84.7 23.1
2001-06-14 09:09:26 51°25.17 3°32.765 96.7 9.9 91.3 23
2001-06-14 09:09:32 51°25.168 3°32.791 100.7 9.9 95.2 22.9
2001-06-14 09:09:37 51°25.165 3°32.813 103.2 9.9 99.7 22.8
2001-06-14 09:09:41 51°25.163 3°32.83 104.5 9.9 101.3 22.8
2001-06-14 09:09:47 51°25.159 3°32.856 104.7 10 102.2 22.8
2001-06-14 09:09:52 51°25.156 3°32.878 104.2 10 102.2 22.7
2001-06-14 09:09:57 51°25.153 3°32.9 104.5 10 102.2 22.7
2001-06-14 09:10:02 51°25.15 3°32.921 105.5 10 103.2 22.6
2001-06-14 09:10:07 51°25.146 3°32.943 106.5 10 104.1 22.5
2001-06-14 09:10:12 51°25.143 3°32.964 107.5 10 105.2 22.4
2001-06-14 09:10:17 51°25.139 3°32.986 107.7 10.1 105.4 22.3
2001-06-14 09:10:22 51°25.136 3°33.007 106.3 10.1 103.6 22.3
2001-06-14 09:10:27 51°25.134 3°33.029 104.2 10.1 101.6 22.2
2001-06-14 09:10:32 51°25.133 3°33.052 100.8 10.1 98.8 22
2001-06-14 09:10:36 51°25.132 3°33.07 98 10.1 94.7 21.9
2001-06-14 09:10:42 51°25.132 3°33.096 96.2 10.1 92.4 21.8
2001-06-14 09:10:47 51°25.132 3°33.119 93.8 10.1 89.5 21.7
2001-06-14 09:10:52 51°25.133 3°33.141 92.7 10.1 87.3 21.7
2001-06-14 09:10:57 51°25.134 3°33.163 91.7 10.1 86.2 21.6
2001-06-14 09:11:02 51°25.136 3°33.186 90.8 10.1 85.3 21.6
2001-06-14 09:11:06 51°25.137 3°33.204 89.3 10.2 83.8 21.6
2001-06-14 09:11:12 51°25.14 3°33.231 87.8 10.2 82.3 21.5
2001-06-14 09:11:17 51°25.142 3°33.253 87 10.2 80.7 21.5
2001-06-14 09:11:22 51°25.145 3°33.276 85.8 10.2 79.8 21.5
2001-06-14 09:11:27 51°25.148 3°33.298 84.8 10.2 78.2 21.4
2001-06-14 09:11:32 51°25.151 3°33.32 84.3 10.3 77.4 21.4
2001-06-14 09:11:36 51°25.155 3°33.337 83 10.3 76.1 21.4
2001-06-14 09:11:42 51°25.159 3°33.364 82.3 10.3 75.3 21.4
2001-06-14 09:11:46 51°25.162 3°33.381 81.8 10.3 74.3 21.4
2001-06-14 09:11:52 51°25.167 3°33.408 81.5 10.3 74 21.4
2001-06-14 09:11:57 51°25.171 3°33.429 81.7 10.3 74 21.5
2001-06-14 09:12:02 51°25.175 3°33.451 81.8 10.3 74.3 21.5
2001-06-14 09:12:07 51°25.178 3°33.473 82.7 10.2 74.7 21.4
2001-06-14 09:12:12 51°25.182 3°33.495 82.2 10.3 74.1 21.4
2001-06-14 09:12:17 51°25.187 3°33.517 80 10.3 72.8 21.5
2001-06-14 09:12:22 51°25.192 3°33.538 79.2 10.3 71.3 21.6
2001-06-14 09:12:27 51°25.197 3°33.56 78.7 10.3 70.7 21.6
2001-06-14 09:12:32 51°25.201 3°33.582 79 10.3 71 21.7
2001-06-14 09:12:37 51°25.205 3°33.603 80.2 10.3 71.8 21.6
2001-06-14 09:12:42 51°25.209 3°33.625 80.5 10.3 72.6 21.5
2001-06-14 09:12:47 51°25.213 3°33.647 80.7 10.3 72.9 21.6
2001-06-14 09:12:52 51°25.218 3°33.669 81 10.3 73.3 21.7
2001-06-14 09:12:57 51°25.222 3°33.691 81.3 10.3 73.6 21.6
2001-06-14 09:13:02 51°25.226 3°33.713 81.2 10.3 73.6 21.8
2001-06-14 09:13:07 51°25.23 3°33.735 80.8 10.3 73.5 21.8
2001-06-14 09:13:12 51°25.234 3°33.757 81.3 10.3 73.5 21.9
2001-06-14 09:13:16 51°25.237 3°33.774 81.7 10.3 73.8 21.7
2001-06-14 09:13:22 51°25.242 3°33.801 80.8 10.4 73.7 21.7
2001-06-14 09:13:26 51°25.246 3°33.819 80.5 10.3 73.2 21.6
2001-06-14 09:13:32 51°25.251 3°33.845 80.5 10.4 73.2 21.5
2001-06-14 09:13:36 51°25.254 3°33.863 80.8 10.3 73.6 21.7
2001-06-14 09:13:42 51°25.258 3°33.889 82.2 10.3 74.5 21.7
2001-06-14 09:13:46 51°25.261 3°33.907 83 10.3 75.8 21.9
2001-06-14 09:13:52 51°25.264 3°33.933 84.3 10.3 77 21.9
2001-06-14 09:13:56 51°25.266 3°33.951 85.5 10.3 78.4 21.8
2001-06-14 09:14:01 51°25.269 3°33.974 85.5 10.3 79.1 21.8
2001-06-14 09:14:06 51°25.272 3°33.996 85.2 10.3 78.6 22
2001-06-14 09:14:12 51°25.275 3°34.023 84.2 10.3 78 21.8
2001-06-14 09:14:17 51°25.279 3°34.045 83.7 10.3 77 22
2001-06-14 09:14:22 51°25.282 3°34.068 83.3 10.3 76.6 21.8
2001-06-14 09:14:27 51°25.286 3°34.09 83.3 10.3 76.2 21.7
2001-06-14 09:14:31 51°25.289 3°34.108 83 10.3 76 21.9
2001-06-14 09:14:36 51°25.292 3°34.13 82 10.4 75.2 21.8
2001-06-14 09:14:42 51°25.297 3°34.156 81.8 10.4 74.7 21.9
2001-06-14 09:14:47 51°25.301 3°34.179 82.2 10.4 74.8 22.2
2001-06-14 09:14:52 51°25.304 3°34.201 82.3 10.4 75 22
2001-06-14 09:14:56 51°25.307 3°34.219 83 10.4 75.6 21.9
2001-06-14 09:15:02 51°25.311 3°34.246 83.7 10.4 76.3 22.3
2001-06-14 09:15:06 51°25.314 3°34.264 83.7 10.4 76.5 22.3
2001-06-14 09:15:11 51°25.317 3°34.286 82.7 10.4 75.9 22.3
2001-06-14 09:15:16 51°25.321 3°34.308 81 10.4 74.4 21.9
2001-06-14 09:15:21 51°25.326 3°34.33 80.3 10.5 73.4 22.1
2001-06-14 09:15:26 51°25.33 3°34.352 80.3 10.5 73 21.7
2001-06-14 09:15:32 51°25.335 3°34.379 80.5 10.5 73.2 21.8
2001-06-14 09:15:37 51°25.339 3°34.402 81 10.5 73.8 22
2001-06-14 09:15:41 51°25.342 3°34.419 81.7 10.5 74.4 22.2
2001-06-14 09:15:46 51°25.346 3°34.442 82.2 10.5 75 22
2001-06-14 09:15:52 51°25.35 3°34.469 82.2 10.5 75.1 22
2001-06-14 09:15:57 51°25.354 3°34.491 81.2 10.5 74.1 22
2001-06-14 09:16:02 51°25.358 3°34.514 80.5 10.5 73.6 22.3
2001-06-14 09:16:07 51°25.363 3°34.536 80.5 10.5 73.2 22.4
2001-06-14 09:16:11 51°25.366 3°34.554 81.5 10.5 73.7 22.1
2001-06-14 09:16:16 51°25.369 3°34.576 82.8 10.4 75.2 22.1
2001-06-14 09:16:22 51°25.373 3°34.603 83.8 10.4 76.1 21.8
2001-06-14 09:16:26 51°25.376 3°34.621 83.7 10.4 76.6 21.7
2001-06-14 09:16:32 51°25.38 3°34.648 83 10.5 76.2 21.6
2001-06-14 09:16:36 51°25.383 3°34.666 83.2 10.4 76 22.3
2001-06-14 09:16:42 51°25.387 3°34.693 83.5 10.4 76 22.5
2001-06-14 09:16:46 51°25.39 3°34.711 82.8 10.4 75.7 22.6
2001-06-14 09:16:51 51°25.394 3°34.734 81.8 10.5 74.8 22.3
2001-06-14 09:16:56 51°25.398 3°34.756 81.7 10.5 74.3 22.3
2001-06-14 09:17:02 51°25.402 3°34.783 81.7 10.5 74 22.2
2001-06-14 09:17:06 51°25.406 3°34.801 81.7 10.5 74 22.6
2001-06-14 09:17:12 51°25.41 3°34.827 81.2 10.5 73.8 22.9
2001-06-14 09:17:17 51°25.414 3°34.85 81.8 10.5 74.2 23.1
2001-06-14 09:17:21 51°25.417 3°34.868 82.8 10.5 74.7 23.2
2001-06-14 09:17:26 51°25.421 3°34.89 82.8 10.5 75.4 23.5
2001-06-14 09:17:32 51°25.425 3°34.917 82.2 10.5 75 23.3
2001-06-14 09:17:37 51°25.429 3°34.94 82.2 10.5 74.7 22.7
2001-06-14 09:17:42 51°25.433 3°34.962 81.5 10.5 74.1 23
2001-06-14 09:17:46 51°25.437 3°34.98 80.3 10.5 73 23.1
2001-06-14 09:17:52 51°25.442 3°35.006 79.8 10.5 72.3 23.6
2001-06-14 09:17:56 51°25.446 3°35.024 80.2 10.5 72.1 23.7
2001-06-14 09:18:01 51°25.45 3°35.047 80.8 10.5 72.6 23.1
2001-06-14 09:18:06 51°25.454 3°35.069 80.8 10.5 73.2 23.1
2001-06-14 09:18:11 51°25.458 3°35.091 80.7 10.5 73.4 23.6
2001-06-14 09:18:16 51°25.462 3°35.114 81.3 10.5 74.1 24
2001-06-14 09:18:22 51°25.467 3°35.14 81.7 10.5 74.8 23.1
2001-06-14 09:18:27 51°25.47 3°35.163 81.3 10.4 75.1 22.6
2001-06-14 09:18:32 51°25.474 3°35.185 80.7 10.4 75.2 23.3
2001-06-14 09:18:36 51°25.477 3°35.202 80 10.3 75 24
2001-06-14 09:18:42 51°25.481 3°35.229 79.2 10.3 74.6 24.2
2001-06-14 09:18:46 51°25.485 3°35.246 77.8 10.2 73.3 23.5
2001-06-14 09:18:52 51°25.49 3°35.271 76.2 10.2 72.1 22.4
2001-06-14 09:18:57 51°25.495 3°35.292 75.2 10.1 70.3 23.3
2001-06-14 09:19:02 51°25.5 3°35.313 74.5 10.1 69.7 23.6
2001-06-14 09:19:06 51°25.505 3°35.33 73.7 10.1 68.5 23.2
2001-06-14 09:19:12 51°25.511 3°35.354 73.2 10.1 68.1 23
2001-06-14 09:19:16 51°25.515 3°35.371 73.2 10 67.9 22.9
2001-06-14 09:19:22 51°25.521 3°35.396 73.3 10 68.2 22.8
2001-06-14 09:19:26 51°25.525 3°35.412 74.2 10 68.5 22.5
2001-06-14 09:19:32 51°25.531 3°35.437 74.3 10 69.1 22.7
2001-06-14 09:19:37 51°25.537 3°35.458 73.7 10 68.7 22.4
2001-06-14 09:19:41 51°25.541 3°35.474 73.3 10 68.5 23
2001-06-14 09:19:46 51°25.546 3°35.495 73.5 10 68.4 22.8
2001-06-14 09:19:51 51°25.551 3°35.515 73.5 10 68.6 22.1
2001-06-14 09:19:56 51°25.556 3°35.536 73.5 10 68.4 22.7
2001-06-14 09:20:02 51°25.562 3°35.561 73.7 10 68.5 22
2001-06-14 09:20:07 51°25.567 3°35.581 74 10 68.6 22.2
2001-06-14 09:20:12 51°25.572 3°35.602 74 10 68.9 22
2001-06-14 09:20:16 51°25.576 3°35.618 73.8 10 68.7 21.3
2001-06-14 09:20:22 51°25.582 3°35.643 73.8 10 68.8 21.2
2001-06-14 09:20:27 51°25.587 3°35.664 73.8 9.9 68.7 20.8
2001-06-14 09:20:32 51°25.592 3°35.684 73.2 9.9 68.5 20.1
2001-06-14 09:20:36 51°25.596 3°35.7 73 10 68.1 19.5
2001-06-14 09:20:42 51°25.602 3°35.725 72.8 9.9 67.8 19.3
2001-06-14 09:20:46 51°25.606 3°35.741 73.2 9.9 67.9 18.8
2001-06-14 09:20:51 51°25.612 3°35.761 72.7 9.9 67.8 18.5
2001-06-14 09:20:56 51°25.617 3°35.782 73 9.9 67.9 18
2001-06-14 09:21:01 51°25.622 3°35.802 73.3 9.9 68.2 17.8
2001-06-14 09:21:06 51°25.627 3°35.823 74 9.9 68.9 17.5
2001-06-14 09:21:12 51°25.633 3°35.848 74 10 69.1 17.3
2001-06-14 09:21:17 51°25.638 3°35.868 73.2 10 68.6 16.8
2001-06-14 09:21:22 51°25.643 3°35.889 72.3 10 68 16.8
2001-06-14 09:21:26 51°25.648 3°35.905 72.2 10 67.5 16.4
2001-06-14 09:21:32 51°25.654 3°35.93 72.8 10 67.9 16.1
2001-06-14 09:21:36 51°25.657 3°35.946 73.7 10 69 15.8
2001-06-14 09:21:42 51°25.663 3°35.971 74.2 10 69.8 15.7
2001-06-14 09:21:47 51°25.667 3°35.993 75.5 10 71.3 16.2
2001-06-14 09:21:52 51°25.671 3°36.014 76.5 10 72.5 15.4
2001-06-14 09:21:56 51°25.674 3°36.031 76.7 10 73.2 15.6
2001-06-14 09:22:02 51°25.679 3°36.056 76.3 10 73.3 15.4
2001-06-14 09:22:06 51°25.682 3°36.073 75.8 10 72.5 15.5
2001-06-14 09:22:11 51°25.686 3°36.094 75.7 10 72.3 15.4
2001-06-14 09:22:16 51°25.691 3°36.115 75 10 71.2 15.3
2001-06-14 09:22:22 51°25.697 3°36.141 74.8 10 70.8 15.3
2001-06-14 09:22:26 51°25.7 3°36.157 74.7 10 70.4 15.3
2001-06-14 09:22:32 51°25.706 3°36.182 74.8 10 70.4 15.3
2001-06-14 09:22:36 51°25.71 3°36.199 74.7 10 70.3 15.1
2001-06-14 09:22:41 51°25.714 3°36.22 74.3 10 70.1 15.3
2001-06-14 09:22:46 51°25.719 3°36.24 74 10 69.6 15.3
2001-06-14 09:22:52 51°25.725 3°36.265 73.5 9.9 69.2 15.1
2001-06-14 09:22:57 51°25.73 3°36.285 73.2 9.9 68.8 15.3
2001-06-14 09:23:02 51°25.735 3°36.306 74 9.9 69.3 15.3
2001-06-14 09:23:07 51°25.739 3°36.327 75.3 9.9 70.6 15.3
2001-06-14 09:23:12 51°25.743 3°36.348 76 9.9 71.2 15.3
2001-06-14 09:23:17 51°25.748 3°36.369 75.7 10 71.6 15.7
2001-06-14 09:23:22 51°25.753 3°36.39 75 10 71 15.7
2001-06-14 09:23:26 51°25.756 3°36.407 75.5 9.9 71.1 15.6
2001-06-14 09:23:32 51°25.761 3°36.432 75.3 10 71.1 15.9
2001-06-14 09:23:36 51°25.765 3°36.449 75 10 70.6 15.7
2001-06-14 09:23:42 51°25.771 3°36.473 74.2 10 70.3 15.8
2001-06-14 09:23:46 51°25.775 3°36.49 74 10 69.5 15.9
2001-06-14 09:23:51 51°25.78 3°36.511 73.8 10 69.5 16.1
2001-06-14 09:23:56 51°25.784 3°36.531 74.2 10 69.4 16.1
2001-06-14 09:24:02 51°25.79 3°36.556 73.5 10 69.3 16.3
2001-06-14 09:24:07 51°25.795 3°36.577 73.7 9.9 69.2 16
2001-06-14 09:24:12 51°25.8 3°36.597 73.8 9.9 69.2 16.4
2001-06-14 09:24:17 51°25.805 3°36.618 74.2 9.9 69.5 16.2
2001-06-14 09:24:21 51°25.809 3°36.634 74.5 9.9 69.9 16.6
2001-06-14 09:24:26 51°25.813 3°36.655 74.5 9.9 70.2 16.4
2001-06-14 09:24:32 51°25.819 3°36.68 74.2 9.9 69.8 16.7
2001-06-14 09:24:37 51°25.824 3°36.7 74 9.9 69.6 17
2001-06-14 09:24:42 51°25.829 3°36.721 74 9.9 69.3 17.2
2001-06-14 09:24:46 51°25.832 3°36.737 74.3 9.9 69.5 17.2
2001-06-14 09:24:52 51°25.838 3°36.762 73.7 9.9 69.2 17.1
2001-06-14 09:24:56 51°25.842 3°36.778 73.8 9.9 69.3 17.7
2001-06-14 09:25:01 51°25.847 3°36.799 74.5 9.9 69.5 17.9
2001-06-14 09:25:06 51°25.851 3°36.82 74.5 9.9 70.3 18.2
2001-06-14 09:25:11 51°25.856 3°36.84 74.7 9.8 70.3 18.1
2001-06-14 09:25:16 51°25.86 3°36.861 75.2 9.8 70.9 18.5
2001-06-14 09:25:22 51°25.865 3°36.885 75 9.9 70.8 18.8
2001-06-14 09:25:27 51°25.87 3°36.906 75 9.8 71 18.9
2001-06-14 09:25:31 51°25.873 3°36.923 75.5 9.8 71.1 18.6
2001-06-14 09:25:36 51°25.877 3°36.943 75.2 9.9 71.1 18.1
2001-06-14 09:25:42 51°25.883 3°36.968 75 9.9 71 17.3
2001-06-14 09:25:47 51°25.888 3°36.989 74.7 9.9 70.8 15.8
2001-06-14 09:25:52 51°25.892 3°37.009 74 9.9 70.2 16.9
2001-06-14 09:25:57 51°25.897 3°37.03 74 9.8 70 18
2001-06-14 09:26:02 51°25.902 3°37.05 74.3 9.8 70.1 17.7
2001-06-14 09:26:06 51°25.905 3°37.067 74.8 9.8 70.5 18
2001-06-14 09:26:12 51°25.911 3°37.091 74.8 9.8 70.7 18
2001-06-14 09:26:16 51°25.914 3°37.108 74 9.8 70.2 18
2001-06-14 09:26:22 51°25.92 3°37.132 73.3 9.8 69.8 17.7
2001-06-14 09:26:26 51°25.924 3°37.149 74.3 9.8 70 18.1
2001-06-14 09:26:32 51°25.929 3°37.173 74.5 9.8 70.3 18.4
2001-06-14 09:26:37 51°25.934 3°37.194 73.7 9.8 69.8 18.5
2001-06-14 09:26:41 51°25.938 3°37.21 73.5 9.8 69.5 18.8
2001-06-14 09:26:46 51°25.943 3°37.231 73.5 9.8 69.6 18.8
2001-06-14 09:26:52 51°25.948 3°37.255 73.8 9.9 69.7 19
2001-06-14 09:26:56 51°25.952 3°37.272 73.5 9.9 70 18.8
2001-06-14 09:27:02 51°25.958 3°37.297 73.3 9.9 69.9 18.8
2001-06-14 09:27:07 51°25.962 3°37.317 74.5 9.8 70.9 19.1
2001-06-14 09:27:11 51°25.965 3°37.334 75.2 9.9 71.5 19.4
2001-06-14 09:27:16 51°25.97 3°37.355 75 9.9 72 19.4
2001-06-14 09:27:22 51°25.975 3°37.38 74.2 9.9 71.7 19.7
2001-06-14 09:27:27 51°25.979 3°37.401 74.8 9.9 72.1 19.6
2001-06-14 09:27:32 51°25.983 3°37.422 76.5 9.9 73.2 19.4
2001-06-14 09:27:36 51°25.985 3°37.439 77.7 9.9 75.2 19.1
2001-06-14 09:27:42 51°25.989 3°37.464 78.2 9.9 76.1 19
2001-06-14 09:27:47 51°25.992 3°37.486 77.7 9.9 76 19.3
2001-06-14 09:27:51 51°25.995 3°37.503 76 9.9 74.9 19.2
2001-06-14 09:27:56 51°25.999 3°37.523 75 9.9 73.5 19.3
2001-06-14 09:28:01 51°26.004 3°37.544 74.5 9.9 72.9 19
2001-06-14 09:28:06 51°26.007 3°37.565 75.5 9.9 73.4 19.3
2001-06-14 09:28:12 51°26.011 3°37.591 76.8 9.9 74.4 19.2
2001-06-14 09:28:17 51°26.015 3°37.612 77.8 9.9 76.1 19.3
2001-06-14 09:28:22 51°26.018 3°37.633 78 9.9 76.6 18.8
2001-06-14 09:28:26 51°26.021 3°37.65 77 9.9 75.9 19.1
2001-06-14 09:28:32 51°26.025 3°37.675 75.3 9.9 74.7 18.8
2001-06-14 09:28:37 51°26.03 3°37.696 74 9.9 72.6 19.3
2001-06-14 09:28:42 51°26.034 3°37.717 73.5 9.9 72 19.3
2001-06-14 09:28:47 51°26.038 3°37.738 74 9.9 71.8 18.9
2001-06-14 09:28:52 51°26.042 3°37.759 74.3 9.9 72.3 19.2
2001-06-14 09:28:56 51°26.046 3°37.776 74.7 9.9 72.7 18.8
2001-06-14 09:29:02 51°26.05 3°37.801 75.8 9.9 73.6 19.2
2001-06-14 09:29:06 51°26.053 3°37.818 76.3 9.9 74.3 18.9
2001-06-14 09:29:12 51°26.058 3°37.844 75.3 10 74.4 18.5
2001-06-14 09:29:16 51°26.061 3°37.861 75 10 73.5 18.4
2001-06-14 09:29:22 51°26.066 3°37.886 74.8 10 73.3 18.6
2001-06-14 09:29:27 51°26.07 3°37.907 74.8 10 72.8 18.8
2001-06-14 09:29:32 51°26.075 3°37.929 74 10 72.7 18.6
2001-06-14 09:29:36 51°26.078 3°37.945 73.7 10 71.7 18.5
2001-06-14 09:29:41 51°26.082 3°37.967 74 10.1 71.9 18.1
2001-06-14 09:29:46 51°26.087 3°37.989 74.5 10.1 72.3 17.7
2001-06-14 09:29:52 51°26.093 3°38.014 74.3 10.1 72.5 17.3
2001-06-14 09:29:57 51°26.097 3°38.036 74.2 10.1 72.2 17.2
2001-06-14 09:30:02 51°26.101 3°38.057 74.8 10.2 72.4 17.6
2001-06-14 09:30:07 51°26.105 3°38.079 74.8 10.2 72.5 18.1
2001-06-14 09:30:12 51°26.11 3°38.1 73.8 10.2 71.9 18.2
2001-06-14 09:30:17 51°26.114 3°38.122 73.8 10.2 71.6 17.6
2001-06-14 09:30:22 51°26.118 3°38.143 74.5 10.3 71.6 17.7
2001-06-14 09:30:26 51°26.122 3°38.161 74.2 10.3 71.5 17.6
2001-06-14 09:30:32 51°26.128 3°38.187 73.3 10.3 70.7 17.7
2001-06-14 09:30:36 51°26.132 3°38.204 73.7 10.4 70.3 18
2001-06-14 09:30:42 51°26.138 3°38.23 73.5 10.5 69.8 19.2
2001-06-14 09:30:46 51°26.142 3°38.248 73 10.5 69 20.4
2001-06-14 09:30:51 51°26.148 3°38.27 72.8 10.6 68.6 21.3
2001-06-14 09:30:56 51°26.153 3°38.292 73.2 10.6 68.6 22.2
2001-06-14 09:31:02 51°26.16 3°38.318 73.3 10.7 68.6 23.1
2001-06-14 09:31:07 51°26.165 3°38.34 73.3 10.7 68.3 23.8
2001-06-14 09:31:12 51°26.171 3°38.362 73.2 10.7 68 24.4
2001-06-14 09:31:17 51°26.177 3°38.384 73.5 10.8 67.9 25.2
2001-06-14 09:31:22 51°26.182 3°38.406 73.5 10.8 67.5 25.8
2001-06-14 09:31:26 51°26.187 3°38.424 73.7 10.7 66.9 26.2
2001-06-14 09:31:32 51°26.194 3°38.45 73.8 10.7 66.6 27.1
2001-06-14 09:31:37 51°26.2 3°38.471 74.2 10.6 66.5 28.1
2001-06-14 09:31:42 51°26.206 3°38.493 74.8 10.6 66.9 29.2
2001-06-14 09:31:46 51°26.21 3°38.511 75.8 10.6 67.7 30.2
2001-06-14 09:31:52 51°26.217 3°38.536 76.2 10.5 68.1 29.9
2001-06-14 09:31:56 51°26.222 3°38.554 76.2 10.5 67.8 30.1
2001-06-14 09:32:02 51°26.229 3°38.579 75.7 10.5 67.3 31.1
2001-06-14 09:32:06 51°26.233 3°38.596 75.2 10.4 66.3 31.2
2001-06-14 09:32:12 51°26.24 3°38.621 76 10.3 66.3 31.1
2001-06-14 09:32:16 51°26.244 3°38.638 78 10.2 67.9 30.8
2001-06-14 09:32:22 51°26.249 3°38.663 79.2 10.2 69.1 31.1
2001-06-14 09:32:27 51°26.254 3°38.685 79.8 10.1 70.4 31.9
2001-06-14 09:32:31 51°26.258 3°38.702 79.3 10.1 70.5 32.7
2001-06-14 09:32:36 51°26.263 3°38.723 79.2 10.1 70.1 33
2001-06-14 09:32:42 51°26.268 3°38.748 80 10.1 70.3 32.8
2001-06-14 09:32:47 51°26.273 3°38.769 80 10.1 70.6 32.3
2001-06-14 09:32:52 51°26.278 3°38.79 79.8 10.1 70.4 32.1
2001-06-14 09:32:57 51°26.283 3°38.811 79.7 10.1 70.3 32.1
2001-06-14 09:33:02 51°26.287 3°38.832 79.8 10.1 70.3 31.9
2001-06-14 09:33:07 51°26.292 3°38.854 80.2 10.1 70.7 31.6
2001-06-14 09:33:12 51°26.296 3°38.875 81.2 10.1 71.2 30.5
2001-06-14 09:33:16 51°26.299 3°38.892 82.3 10.1 72.5 29.8
2001-06-14 09:33:22 51°26.304 3°38.918 83.3 10 73.7 29.2
2001-06-14 09:33:26 51°26.306 3°38.935 84.5 10 75.2 28.5
2001-06-14 09:33:32 51°26.309 3°38.961 85.8 10 76.5 27.9
2001-06-14 09:33:37 51°26.312 3°38.982 87.5 9.9 78.5 26.9
2001-06-14 09:33:41 51°26.314 3°39 88.3 9.9 79.6 26.1
2001-06-14 09:33:46 51°26.316 3°39.021 88.7 9.9 80.3 25
2001-06-14 09:33:52 51°26.318 3°39.047 89.3 9.9 81 24.1
2001-06-14 09:33:57 51°26.32 3°39.069 90.5 9.9 82.6 23
2001-06-14 09:34:02 51°26.321 3°39.091 92 9.8 84 21.6
2001-06-14 09:34:07 51°26.321 3°39.112 95.3 9.7 87.7 20.2
2001-06-14 09:34:12 51°26.319 3°39.133 98.8 9.6 91.3 19
2001-06-14 09:34:16 51°26.318 3°39.15 101.7 9.6 95.8 17.8
2001-06-14 09:34:22 51°26.316 3°39.175 102.5 9.6 97.8 18.3
2001-06-14 09:34:27 51°26.314 3°39.196 102.3 9.6 98.4 19.1
2001-06-14 09:34:32 51°26.312 3°39.217 102.8 9.5 98.5 19.7
2001-06-14 09:34:36 51°26.31 3°39.234 103 9.5 98.3 19.9
2001-06-14 09:34:42 51°26.308 3°39.259 103 9.5 98 20
2001-06-14 09:34:47 51°26.307 3°39.28 102.8 9.5 97.8 20.2
2001-06-14 09:34:51 51°26.305 3°39.297 103 9.6 97.8 20.4
2001-06-14 09:34:56 51°26.303 3°39.318 103.2 9.6 97.8 20.5
2001-06-14 09:35:02 51°26.301 3°39.343 103.3 9.6 97.7 20.7
2001-06-14 09:35:06 51°26.3 3°39.36 103.3 9.6 97.8 20.6
2001-06-14 09:35:12 51°26.297 3°39.386 103.8 9.6 98 20.6
2001-06-14 09:35:17 51°26.295 3°39.407 105 9.6 98.9 20.2
2001-06-14 09:35:21 51°26.293 3°39.424 105.2 9.7 99.2 20.3
2001-06-14 09:35:26 51°26.292 3°39.445 103.8 9.8 98.3 20.2
2001-06-14 09:35:32 51°26.29 3°39.471 102.3 9.8 97.3 20.1
2001-06-14 09:35:37 51°26.288 3°39.493 103.3 9.7 96.9 20.1
2001-06-14 09:35:42 51°26.286 3°39.514 104.5 9.7 98 20.1
2001-06-14 09:35:47 51°26.284 3°39.536 105.7 9.8 99.6 19.8
2001-06-14 09:35:52 51°26.281 3°39.557 106.8 9.8 101 19.6
2001-06-14 09:35:56 51°26.279 3°39.574 107.5 9.8 101.9 19.4
2001-06-14 09:36:02 51°26.275 3°39.599 107.5 9.8 102.1 19.4
2001-06-14 09:36:06 51°26.273 3°39.617 107 9.8 102.1 19.2
2001-06-14 09:36:12 51°26.27 3°39.642 107.8 9.8 102.1 19.2
2001-06-14 09:36:16 51°26.267 3°39.659 108.2 9.8 103 19
2001-06-14 09:36:22 51°26.263 3°39.684 108.8 9.8 103.5 18.8
2001-06-14 09:36:27 51°26.259 3°39.705 110 9.8 105.1 18.7
2001-06-14 09:36:31 51°26.256 3°39.722 110.8 9.8 106 18.5
2001-06-14 09:36:36 51°26.252 3°39.743 111.5 9.8 107 18.3
2001-06-14 09:36:42 51°26.247 3°39.767 111.8 9.8 107.5 18.2
2001-06-14 09:36:46 51°26.243 3°39.784 112.5 9.8 108.3 17.6
2001-06-14 09:36:52 51°26.237 3°39.808 113.8 9.8 109.3 17.6
2001-06-14 09:36:57 51°26.232 3°39.828 115.5 9.8 111.2 17.7
2001-06-14 09:37:02 51°26.227 3°39.848 116.5 9.8 112.6 17.2
2001-06-14 09:37:06 51°26.222 3°39.864 117.2 9.8 113.5 17
2001-06-14 09:37:12 51°26.216 3°39.888 117.8 9.8 114 16.7
2001-06-14 09:37:17 51°26.21 3°39.908 118.2 9.7 114.3 16.4
2001-06-14 09:37:22 51°26.205 3°39.927 117.8 9.7 114.4 15.6
2001-06-14 09:37:26 51°26.2 3°39.943 118.3 9.7 114.8 15
2001-06-14 09:37:32 51°26.193 3°39.965 120 9.6 116.6 14.7
2001-06-14 09:37:37 51°26.186 3°39.984 121.5 9.6 118.1 14.3
2001-06-14 09:37:41 51°26.181 3°39.999 122.2 9.6 119.2 13.9
2001-06-14 09:37:46 51°26.174 3°40.017 122.5 9.6 120 13.8
2001-06-14 09:37:51 51°26.167 3°40.036 122.7 9.6 120.2 13.7
2001-06-14 09:37:56 51°26.161 3°40.054 123 9.6 120.6 13.5
2001-06-14 09:38:02 51°26.152 3°40.076 123.7 9.6 121.1 13.4
2001-06-14 09:38:07 51°26.145 3°40.094 124.2 9.6 121.7 13.2
2001-06-14 09:38:12 51°26.138 3°40.112 124 9.7 121.8 13.3
2001-06-14 09:38:16 51°26.133 3°40.127 124.2 9.7 121.8 13.1
2001-06-14 09:38:22 51°26.124 3°40.149 124.5 9.7 121.8 13
2001-06-14 09:38:27 51°26.117 3°40.167 124.7 9.7 122 13.1
2001-06-14 09:38:32 51°26.109 3°40.185 124.7 9.7 122 12.9
2001-06-14 09:38:37 51°26.102 3°40.203 124.7 9.7 122.1 12.8
2001-06-14 09:38:42 51°26.095 3°40.222 124.8 9.7 122.2 13
2001-06-14 09:38:47 51°26.088 3°40.239 125.2 9.7 122.7 12.7
2001-06-14 09:38:52 51°26.08 3°40.257 126 9.6 123.2 12.9
2001-06-14 09:38:56 51°26.074 3°40.271 126.5 9.6 124.2 13
2001-06-14 09:39:02 51°26.065 3°40.292 126.8 9.7 124.6 13.1
2001-06-14 09:39:06 51°26.059 3°40.306 127 9.7 125 13.2
2001-06-14 09:39:12 51°26.049 3°40.327 127.3 9.6 125.1 13
2001-06-14 09:39:17 51°26.042 3°40.344 127.7 9.6 125.8 13
2001-06-14 09:39:22 51°26.034 3°40.362 128.2 9.6 126.1 13
2001-06-14 09:39:26 51°26.027 3°40.375 128.5 9.6 126.7 13.2
2001-06-14 09:39:31 51°26.019 3°40.392 128.3 9.6 126.7 13.3
2001-06-14 09:39:36 51°26.012 3°40.41 128.2 9.6 126.5 13.4
2001-06-14 09:39:42 51°26.002 3°40.43 127.8 9.6 126.2 13.4
2001-06-14 09:39:47 51°25.994 3°40.448 127.7 9.6 125.9 13
2001-06-14 09:39:52 51°25.987 3°40.465 127.3 9.6 125.5 13.5
2001-06-14 09:39:57 51°25.979 3°40.483 127.5 9.6 125.2 13.6
2001-06-14 09:40:02 51°25.971 3°40.5 127.2 9.6 125.2 13.3
2001-06-14 09:40:07 51°25.964 3°40.517 127.8 9.6 125.6 13.4
2001-06-14 09:40:12 51°25.956 3°40.534 128.8 9.6 126.4 13.5
2001-06-14 09:40:16 51°25.949 3°40.548 129.2 9.6 127.1 13.2
2001-06-14 09:40:22 51°25.939 3°40.568 129 9.6 127.2 13.3
2001-06-14 09:40:26 51°25.933 3°40.582 128.8 9.6 127.1 13.6
2001-06-14 09:40:32 51°25.923 3°40.602 129.8 9.6 127.5 13.6
2001-06-14 09:40:36 51°25.916 3°40.615 130.5 9.6 128.5 13.6
2001-06-14 09:40:41 51°25.908 3°40.631 130.7 9.6 129.1 14.2
2001-06-14 09:40:46 51°25.899 3°40.648 131.5 9.6 129.6 13.9
2001-06-14 09:40:52 51°25.889 3°40.667 132.5 9.6 130.5 14.3
2001-06-14 09:40:57 51°25.88 3°40.683 132.3 9.6 131.1 14.3
2001-06-14 09:41:02 51°25.871 3°40.699 132.7 9.6 131.2 14.6
2001-06-14 09:41:07 51°25.862 3°40.714 133.7 9.5 132.2 14.6
2001-06-14 09:41:12 51°25.853 3°40.73 134.7 9.5 132.8 14.5
2001-06-14 09:41:16 51°25.846 3°40.742 134.3 9.6 133.2 14.7
2001-06-14 09:41:22 51°25.835 3°40.761 133 9.5 132.6 14.6
2001-06-14 09:41:27 51°25.826 3°40.776 133.7 9.5 132.5 14.5
2001-06-14 09:41:32 51°25.817 3°40.791 136 9.5 133.7 14.6
2001-06-14 09:41:36 51°25.809 3°40.803 136.5 9.5 135.3 14.5
2001-06-14 09:41:42 51°25.798 3°40.821 135.8 9.5 135 14.3
2001-06-14 09:41:46 51°25.791 3°40.833 135.5 9.5 134.5 14.4
2001-06-14 09:41:51 51°25.782 3°40.848 135 9.5 134.3 14.4
2001-06-14 09:41:56 51°25.773 3°40.864 134.2 9.5 133.1 14.3
2001-06-14 09:42:02 51°25.762 3°40.882 134 9.5 132.8 14.7
2001-06-14 09:42:07 51°25.753 3°40.898 133.5 9.5 132.1 15
2001-06-14 09:42:12 51°25.745 3°40.914 133 9.5 131.4 15.5
2001-06-14 09:42:17 51°25.736 3°40.93 133.3 9.5 131.6 14.4
2001-06-14 09:42:21 51°25.729 3°40.942 134.2 9.5 131.9 14.2
2001-06-14 09:42:26 51°25.72 3°40.958 134.2 9.5 132.7 14.7
2001-06-14 09:42:32 51°25.709 3°40.976 134.2 9.5 132.5 15
2001-06-14 09:42:37 51°25.7 3°40.991 134.7 9.5 133 15.4
2001-06-14 09:42:42 51°25.691 3°41.006 134.3 9.5 132.8 15.5
2001-06-14 09:42:47 51°25.682 3°41.023 133.2 9.6 132.2 14.6
2001-06-14 09:42:52 51°25.674 3°41.039 132.7 9.5 131.3 15
2001-06-14 09:42:56 51°25.667 3°41.051 133.5 9.5 131.6 15.6
2001-06-14 09:43:02 51°25.656 3°41.07 133.3 9.5 131.9 15.8
2001-06-14 09:43:06 51°25.649 3°41.083 133.5 9.6 132.1 16.3
2001-06-14 09:43:12 51°25.638 3°41.102 134.2 9.6 132.2 15.3
2001-06-14 09:43:16 51°25.631 3°41.115 133.2 9.6 132.2 15.8
2001-06-14 09:43:22 51°25.621 3°41.134 132.5 9.6 131.5 16.5
2001-06-14 09:43:27 51°25.612 3°41.149 133 9.5 131.9 16.9
2001-06-14 09:43:31 51°25.605 3°41.162 134 9.5 132.4 17.2
2001-06-14 09:43:36 51°25.595 3°41.177 134.7 9.6 133.7 17.9
2001-06-14 09:43:42 51°25.584 3°41.195 134.5 9.6 133.9 18.9
2001-06-14 09:43:47 51°25.575 3°41.211 134.5 9.6 134 19.4
2001-06-14 09:43:52 51°25.566 3°41.226 134.8 9.6 134.3 20.2
2001-06-14 09:43:57 51°25.556 3°41.241 135.3 9.5 134.6 20.8
2001-06-14 09:44:02 51°25.547 3°41.256 135 9.5 134.8 21.5
2001-06-14 09:44:06 51°25.54 3°41.268 135.5 9.5 134.8 21.6
2001-06-14 09:44:12 51°25.528 3°41.286 135.8 9.5 135.3 21.8
2001-06-14 09:44:17 51°25.519 3°41.301 135.3 9.5 134.7 22.4
2001-06-14 09:44:22 51°25.51 3°41.317 134.2 9.5 134.1 22.5
2001-06-14 09:44:26 51°25.503 3°41.329 133.8 9.5 132.9 22.8
2001-06-14 09:44:32 51°25.492 3°41.347 134.2 9.4 133 22.6
2001-06-14 09:44:36 51°25.485 3°41.359 134.7 9.4 133.3 23
2001-06-14 09:44:41 51°25.476 3°41.374 135.5 9.4 134 22.6
2001-06-14 09:44:46 51°25.467 3°41.389 135.5 9.4 134.3 22.8
2001-06-14 09:44:52 51°25.456 3°41.407 135 9.4 134.2 22.7
2001-06-14 09:44:57 51°25.447 3°41.423 134.7 9.4 133.7 22.8
2001-06-14 09:45:02 51°25.437 3°41.438 135 9.4 133.8 22.8
2001-06-14 09:45:07 51°25.428 3°41.453 135.2 9.5 134.1 22.3
2001-06-14 09:45:12 51°25.419 3°41.468 135.3 9.5 134.2 21.9
2001-06-14 09:45:16 51°25.412 3°41.48 134.5 9.5 133.8 21.6
2001-06-14 09:45:22 51°25.401 3°41.499 134 9.5 133.2 21.1
2001-06-14 09:45:27 51°25.392 3°41.514 134.5 9.5 133.3 20.6
2001-06-14 09:45:32 51°25.383 3°41.529 135.7 9.5 134 20.1
2001-06-14 09:45:37 51°25.373 3°41.544 136.3 9.5 135 20
2001-06-14 09:45:42 51°25.364 3°41.559 135.8 9.5 135.2 19.8
2001-06-14 09:45:46 51°25.357 3°41.571 135.5 9.5 135.2 19.7
2001-06-14 09:45:52 51°25.345 3°41.589 135.7 9.5 135.4 19.7
2001-06-14 09:45:56 51°25.338 3°41.6 136 9.5 135.9 19.1
2001-06-14 09:46:01 51°25.328 3°41.615 135.7 9.5 135.6 18.8
2001-06-14 09:46:06 51°25.319 3°41.63 135 9.5 134.9 18.9
2001-06-14 09:46:12 51°25.308 3°41.648 134.5 9.5 134.3 18.7
2001-06-14 09:46:17 51°25.299 3°41.663 135.2 9.5 134.8 18.5
2001-06-14 09:46:22 51°25.289 3°41.678 136 9.5 135.3 18.4
2001-06-14 09:46:26 51°25.282 3°41.69 136.3 9.5 136.1 18.4
2001-06-14 09:46:32 51°25.27 3°41.707 136 9.5 136 18.5
2001-06-14 09:46:37 51°25.261 3°41.722 135.7 9.5 135.8 18.6
2001-06-14 09:46:42 51°25.252 3°41.737 135 9.5 135.3 18.6
2001-06-14 09:46:47 51°25.243 3°41.752 134.5 9.5 134.7 18.5
2001-06-14 09:46:52 51°25.233 3°41.767 134.5 9.5 134.6 18.4
2001-06-14 09:46:57 51°25.224 3°41.782 134.8 9.5 134.9 18.4
2001-06-14 09:47:02 51°25.214 3°41.797 135.2 9.5 135.3 18.5
2001-06-14 09:47:07 51°25.205 3°41.812 135.7 9.6 136 18.1
2001-06-14 09:47:12 51°25.195 3°41.826 136.3 9.6 136.8 18
2001-06-14 09:47:16 51°25.187 3°41.837 137 9.6 137.5 17.9
2001-06-14 09:47:22 51°25.175 3°41.854 137.7 9.6 138.3 17.9
2001-06-14 09:47:27 51°25.165 3°41.869 137.3 9.6 137.8 17.9
2001-06-14 09:47:32 51°25.155 3°41.883 136.5 9.6 137.5 17.9
2001-06-14 09:47:36 51°25.148 3°41.895 136.2 9.6 136.5 17.9
2001-06-14 09:47:41 51°25.138 3°41.91 136.3 9.6 136.4 18
2001-06-14 09:47:46 51°25.128 3°41.924 137.2 9.6 137.2 18
2001-06-14 09:47:52 51°25.116 3°41.941 138.2 9.6 138.3 18.1
2001-06-14 09:47:57 51°25.106 3°41.955 139.2 9.7 139.5 18.3
2001-06-14 09:48:02 51°25.095 3°41.969 139.5 9.7 139.9 18.3
2001-06-14 09:48:07 51°25.085 3°41.983 139 9.7 139.5 18.2
2001-06-14 09:48:12 51°25.075 3°41.997 139.3 9.7 139.4 18.2
2001-06-14 09:48:17 51°25.065 3°42.011 139.7 9.8 139.4 18.2
2001-06-14 09:48:22 51°25.054 3°42.026 139.8 9.8 139.2 18.2
2001-06-14 09:48:27 51°25.044 3°42.04 139.8 9.8 138.8 18.2
2001-06-14 09:48:32 51°25.034 3°42.055 140.2 9.8 138.6 18.1
2001-06-14 09:48:36 51°25.026 3°42.066 140.7 9.8 139.1 18.3
2001-06-14 09:48:42 51°25.013 3°42.083 141.2 9.9 139.3 18.2
2001-06-14 09:48:46 51°25.005 3°42.095 140.8 9.9 139.3 18.2
2001-06-14 09:48:51 51°24.995 3°42.109 140 9.9 138.8 18.3
2001-06-14 09:48:56 51°24.984 3°42.124 140.2 9.9 138.4 18.5
2001-06-14 09:49:02 51°24.972 3°42.141 140.5 9.9 138.5 19
2001-06-14 09:49:07 51°24.962 3°42.156 139.8 9.9 138.3 19.1
2001-06-14 09:49:12 51°24.952 3°42.171 140.2 9.9 138 19.3
2001-06-14 09:49:17 51°24.941 3°42.185 141 9.9 138.8 19.6
2001-06-14 09:49:22 51°24.93 3°42.199 141.7 10 139.3 19.8
2001-06-14 09:49:27 51°24.92 3°42.213 142.3 10 140.4 19.8
2001-06-14 09:49:32 51°24.909 3°42.227 143.2 10 141.2 19.8
2001-06-14 09:49:37 51°24.898 3°42.24 144.5 10 142.9 19.8
2001-06-14 09:49:42 51°24.886 3°42.251 146.8 9.9 144.8 19.7
2001-06-14 09:49:47 51°24.874 3°42.262 150 9.9 148.9 19.5
2001-06-14 09:49:52 51°24.861 3°42.271 154 9.9 154 19
2001-06-14 09:49:56 51°24.851 3°42.277 157.2 9.9 157.2 18.9
2001-06-14 09:50:02 51°24.835 3°42.286 159.3 10 159.5 18.8
2001-06-14 09:50:06 51°24.824 3°42.291 161 10 162.2 19
2001-06-14 09:50:12 51°24.808 3°42.298 162.2 10.1 163.3 17.1
2001-06-14 09:50:17 51°24.794 3°42.304 163.2 10.1 164.8 16.7
2001-06-14 09:50:22 51°24.781 3°42.309 164 10.1 165.5 16.3
2001-06-14 09:50:26 51°24.769 3°42.313 164.7 10.2 166.5 16.1
2001-06-14 09:50:31 51°24.756 3°42.318 165.5 10.2 167.3 15.6
2001-06-14 09:50:36 51°24.741 3°42.322 166.2 10.3 168.2 15.1
2001-06-14 09:50:42 51°24.724 3°42.328 166.7 10.3 168.7 14.6
2001-06-14 09:50:47 51°24.71 3°42.331 167.3 10.3 169.4 14.4
2001-06-14 09:50:52 51°24.696 3°42.335 167.8 10.3 170 14.1
2001-06-14 09:50:57 51°24.681 3°42.339 168.5 10.3 170.7 13.7
2001-06-14 09:51:02 51°24.667 3°42.342 169.2 10.3 171.8 13.8
2001-06-14 09:51:07 51°24.653 3°42.345 170 10.4 172.5 13.3
2001-06-14 09:51:12 51°24.639 3°42.347 171.2 10.4 173.5 13.4
2001-06-14 09:51:16 51°24.627 3°42.348 172.2 10.4 174.9 13.2
2001-06-14 09:51:22 51°24.61 3°42.35 173.2 10.4 175.6 12.8
2001-06-14 09:51:26 51°24.598 3°42.352 172.5 10.4 175.6 12.8
2001-06-14 09:51:32 51°24.581 3°42.356 169.8 10.4 174.1 12.7
2001-06-14 09:51:37 51°24.567 3°42.359 168.8 10.4 171.8 12.6
2001-06-14 09:51:41 51°24.556 3°42.362 168.3 10.4 170.8 12.5
2001-06-14 09:51:46 51°24.542 3°42.367 167.5 10.4 169 12.7
2001-06-14 09:51:52 51°24.525 3°42.374 165.3 10.4 167.5 13.1
2001-06-14 09:51:57 51°24.512 3°42.38 165 10.3 165.7 12.8
2001-06-14 09:52:02 51°24.498 3°42.385 166 10.4 166 13.4
2001-06-14 09:52:07 51°24.484 3°42.391 165.7 10.4 166 13
2001-06-14 09:52:12 51°24.47 3°42.397 165.2 10.5 165.6 12.9
2001-06-14 09:52:17 51°24.456 3°42.403 165.5 10.5 165.7 13.1
2001-06-14 09:52:22 51°24.441 3°42.408 167.2 10.5 166.3 13.4
2001-06-14 09:52:27 51°24.427 3°42.413 167 10.6 166.8 13.6
2001-06-14 09:52:32 51°24.412 3°42.419 166.2 10.7 166.5 13.5
2001-06-14 09:52:36 51°24.401 3°42.423 167.2 10.7 166.6 13.4
2001-06-14 09:52:42 51°24.384 3°42.429 168.2 10.7 167.6 13.5
2001-06-14 09:52:47 51°24.368 3°42.434 168.7 10.7 168.1 13.4
2001-06-14 09:52:52 51°24.353 3°42.438 169.2 10.8 168.6 13.4
2001-06-14 09:52:56 51°24.342 3°42.442 169.5 10.8 169.1 13.5
2001-06-14 09:53:02 51°24.324 3°42.447 169.8 10.8 169.4 13.2
2001-06-14 09:53:07 51°24.309 3°42.451 170 10.8 169.6 13.2
2001-06-14 09:53:12 51°24.295 3°42.455 169.5 10.8 169.7 13.3
2001-06-14 09:53:17 51°24.28 3°42.459 170.7 10.8 170.1 13.4
2001-06-14 09:53:21 51°24.268 3°42.462 171.5 10.8 170.7 13.4
2001-06-14 09:53:26 51°24.253 3°42.466 171 10.8 170.9 13.6
2001-06-14 09:53:32 51°24.236 3°42.47 170.7 10.8 170.8 13.5
2001-06-14 09:53:37 51°24.221 3°42.474 171.5 10.8 171.3 13.6
2001-06-14 09:53:42 51°24.206 3°42.476 173.2 10.8 172.2 13.7
2001-06-14 09:53:47 51°24.191 3°42.479 173.3 10.8 173.4 13.6
2001-06-14 09:53:52 51°24.176 3°42.481 174.2 10.8 174.5 13.7
2001-06-14 09:53:57 51°24.161 3°42.483 175.5 10.8 175.4 13.9
2001-06-14 09:54:02 51°24.146 3°42.484 176.7 10.7 176.4 13.9
2001-06-14 09:54:06 51°24.134 3°42.485 177.3 10.7 177.3 13.9
2001-06-14 09:54:12 51°24.116 3°42.486 177 10.7 177.6 13.9
2001-06-14 09:54:16 51°24.104 3°42.486 177 10.7 177.8 14
2001-06-14 09:54:22 51°24.087 3°42.486 178.7 10.7 178.8 13.9
2001-06-14 09:54:27 51°24.072 3°42.485 181.2 10.7 181.3 13.7
2001-06-14 09:54:31 51°24.06 3°42.484 182.2 10.7 182.9 13.6
2001-06-14 09:54:36 51°24.045 3°42.482 182.5 10.7 184.4 13.5
2001-06-14 09:54:42 51°24.028 3°42.479 183.3 10.7 185.4 13.4
2001-06-14 09:54:47 51°24.013 3°42.475 184.3 10.6 186.8 13.3
2001-06-14 09:54:52 51°23.998 3°42.472 184.7 10.6 187.3 13.3
2001-06-14 09:54:57 51°23.984 3°42.47 183.3 10.6 187.3 13.3
2001-06-14 09:55:02 51°23.969 3°42.467 183 10.5 187 13.3
2001-06-14 09:55:06 51°23.958 3°42.464 183.8 10.5 187.5 13.2
2001-06-14 09:55:12 51°23.941 3°42.461 182.8 10.5 187.5 13.2
2001-06-14 09:55:17 51°23.926 3°42.459 181.2 10.4 186.2 13.2
2001-06-14 09:55:22 51°23.912 3°42.457 180.3 10.4 185.5 13.3
2001-06-14 09:55:27 51°23.898 3°42.455 180 10.3 184.8 13.4
2001-06-14 09:55:32 51°23.883 3°42.453 180.2 10.3 185.1 13.5
2001-06-14 09:55:37 51°23.869 3°42.45 180.5 10.3 185.5 13.5
2001-06-14 09:55:42 51°23.855 3°42.448 181 10.3 186 13.4
2001-06-14 09:55:46 51°23.844 3°42.446 180.8 10.3 186.2 13.5
2001-06-14 09:55:52 51°23.827 3°42.443 180.2 10.3 185.8 13.7
2001-06-14 09:55:56 51°23.815 3°42.442 179 10.2 184.8 13.9
2001-06-14 09:56:02 51°23.799 3°42.438 178.3 10.2 184.1 13.7
2001-06-14 09:56:07 51°23.786 3°42.434 178.5 10.1 184 13.4
2001-06-14 09:56:12 51°23.772 3°42.433 179 10.1 184.3 13.4
2001-06-14 09:56:16 51°23.761 3°42.432 179.7 10.1 185.1 13.5
2001-06-14 09:56:22 51°23.744 3°42.429 180.5 10.2 185.9 13.9
2001-06-14 09:56:27 51°23.729 3°42.427 181.5 10.2 186.9 14
2001-06-14 09:56:32 51°23.715 3°42.425 181 10.2 187 14
2001-06-14 09:56:37 51°23.701 3°42.424 179.2 10.2 185.2 13.9
2001-06-14 09:56:42 51°23.687 3°42.423 177 10.2 182.8 14.4
2001-06-14 09:56:47 51°23.673 3°42.423 175.7 10.1 181.3 14.4
2001-06-14 09:56:52 51°23.658 3°42.423 175.8 10.1 180.9 14.4
2001-06-14 09:56:56 51°23.647 3°42.423 174.8 10.1 179.9 14.5
2001-06-14 09:57:02 51°23.63 3°42.424 174 10.1 179.4 14.5
2001-06-14 09:57:06 51°23.619 3°42.424 174.3 10.1 179 14.4
2001-06-14 09:57:12 51°23.603 3°42.425 174.7 10.1 179.3 14.7
2001-06-14 09:57:17 51°23.589 3°42.425 174.3 10.2 179.1 14.8
2001-06-14 09:57:22 51°23.574 3°42.426 173.3 10.2 178.5 14.8
2001-06-14 09:57:26 51°23.563 3°42.428 172 10.1 176.8 15
2001-06-14 09:57:32 51°23.546 3°42.43 171 10.1 175.7 15
2001-06-14 09:57:37 51°23.532 3°42.432 170.5 10.1 174.6 15.4
2001-06-14 09:57:42 51°23.518 3°42.434 170.5 10.1 174.4 15.4
2001-06-14 09:57:47 51°23.504 3°42.437 170.7 10.1 174.5 15.5
2001-06-14 09:57:52 51°23.49 3°42.438 171.2 10.1 174.8 15.6
2001-06-14 09:57:57 51°23.476 3°42.44 171.8 10.1 175.5 15.8
2001-06-14 09:58:02 51°23.462 3°42.441 172.3 10.1 175.9 15.8
2001-06-14 09:58:07 51°23.448 3°42.443 172.8 10.2 176.6 15.6
2001-06-14 09:58:12 51°23.434 3°42.444 173.2 10.2 176.9 15.6
2001-06-14 09:58:16 51°23.423 3°42.445 173.2 10.2 177.2 15.5
2001-06-14 09:58:22 51°23.405 3°42.446 173.5 10.3 177.5 15.5
2001-06-14 09:58:27 51°23.391 3°42.447 173.7 10.3 177.3 15.3
2001-06-14 09:58:32 51°23.377 3°42.449 172.8 10.3 176.9 15.2
2001-06-14 09:58:36 51°23.366 3°42.452 170.7 10.2 174.4 15
2001-06-14 09:58:42 51°23.35 3°42.457 168 10.2 172.2 14.9
2001-06-14 09:58:46 51°23.339 3°42.461 165.3 10.1 168.7 14.8
2001-06-14 09:58:52 51°23.322 3°42.467 164 10.1 167 14.8
2001-06-14 09:58:57 51°23.309 3°42.473 162.8 10.1 165.2 14.7
2001-06-14 09:59:02 51°23.295 3°42.48 162.5 10.1 164.4 14.5
2001-06-14 09:59:07 51°23.282 3°42.486 161.7 10.1 163.3 14.4
2001-06-14 09:59:12 51°23.268 3°42.493 160.3 10.1 162.3 14.4
2001-06-14 09:59:17 51°23.255 3°42.501 159.7 10.1 160.8 14.6
2001-06-14 09:59:22 51°23.242 3°42.509 159 10.1 160.3 14.7
2001-06-14 09:59:27 51°23.229 3°42.518 157.3 10.1 158.5 14.8
2001-06-14 09:59:32 51°23.217 3°42.527 155.7 10.1 156.4 14.9
2001-06-14 09:59:36 51°23.207 3°42.535 154.3 10.1 155.1 15.2
2001-06-14 09:59:42 51°23.191 3°42.546 153.2 10.1 153.6 15.2
2001-06-14 09:59:46 51°23.182 3°42.554 152.3 10.1 152.7 14.9
2001-06-14 09:59:51 51°23.169 3°42.565 151.3 10.1 151.7 14
2001-06-14 09:59:56 51°23.157 3°42.577 150.2 10.1 150.2 13.8
2001-06-14 10:00:02 51°23.143 3°42.591 149 10 149 13.8
2001-06-14 10:00:07 51°23.133 3°42.604 147.3 10 146.7 14
2001-06-14 10:00:12 51°23.122 3°42.618 144.8 10 144.8 14.2
2001-06-14 10:00:17 51°23.111 3°42.631 143.8 10 142.7 14.4
2001-06-14 10:00:22 51°23.1 3°42.645 143.5 9.9 142.2 14.3
2001-06-14 10:00:27 51°23.089 3°42.658 142.7 9.9 142 14.6
2001-06-14 10:00:32 51°23.078 3°42.672 142.2 9.9 141.4 14.3
2001-06-14 10:00:37 51°23.068 3°42.686 142.2 9.8 141.2 14.8
2001-06-14 10:00:42 51°23.057 3°42.699 141.8 9.8 141.1 13.2
2001-06-14 10:00:47 51°23.047 3°42.713 141.8 9.8 140.6 13.3
2001-06-14 10:00:52 51°23.037 3°42.727 141.5 9.8 140.2 13.8
2001-06-14 10:00:56 51°23.028 3°42.738 140.7 9.8 139.8 14.3
2001-06-14 10:01:02 51°23.016 3°42.755 140.5 9.8 139.2 14.4
2001-06-14 10:01:06 51°23.008 3°42.767 140.7 9.8 139.3 14.6
2001-06-14 10:01:12 51°22.996 3°42.784 141 9.8 139.2 14.5
2001-06-14 10:01:17 51°22.985 3°42.798 140 9.8 138.8 14.4
2001-06-14 10:01:22 51°22.976 3°42.813 138.5 9.8 137.7 14.5
2001-06-14 10:01:27 51°22.966 3°42.828 138.3 9.8 137.1 14.5
2001-06-14 10:01:32 51°22.955 3°42.842 139.8 9.8 137.5 14.5
2001-06-14 10:01:36 51°22.947 3°42.854 140.5 9.8 138.9 14.3
2001-06-14 10:01:42 51°22.935 3°42.871 139.8 9.8 139 14.4
2001-06-14 10:01:47 51°22.925 3°42.886 140 9.8 139 14.6
2001-06-14 10:01:52 51°22.914 3°42.9 140.2 9.9 138.9 14.6
2001-06-14 10:01:57 51°22.904 3°42.915 139.2 9.9 138.4 14.6
2001-06-14 10:02:02 51°22.894 3°42.93 138 9.9 137.1 14.8
2001-06-14 10:02:07 51°22.884 3°42.945 137.8 9.9 136.8 14.7
2001-06-14 10:02:12 51°22.874 3°42.96 138.2 9.9 136.6 14.7
2001-06-14 10:02:17 51°22.864 3°42.975 137.8 9.9 137 14.9
2001-06-14 10:02:22 51°22.854 3°42.99 138 9.9 136.8 14.9
2001-06-14 10:02:26 51°22.846 3°43.002 138.5 9.9 137.2 15
2001-06-14 10:02:32 51°22.834 3°43.019 138.7 9.9 137.4 15.2
2001-06-14 10:02:37 51°22.824 3°43.034 138.2 9.9 137.3 15.2
2001-06-14 10:02:41 51°22.816 3°43.047 137.7 9.9 136.8 15
2001-06-14 10:02:46 51°22.806 3°43.062 137.5 9.8 136.5 15.1
2001-06-14 10:02:52 51°22.795 3°43.079 138 9.8 136.6 15.3
2001-06-14 10:02:57 51°22.785 3°43.094 138.5 9.8 137.1 15.7
2001-06-14 10:03:02 51°22.775 3°43.109 137.8 9.8 136.9 15.9
2001-06-14 10:03:07 51°22.765 3°43.125 136.2 9.8 135.6 15.8
2001-06-14 10:03:12 51°22.756 3°43.14 135.5 9.8 134.7 16
2001-06-14 10:03:16 51°22.748 3°43.153 136 9.8 134.5 16.2
2001-06-14 10:03:22 51°22.737 3°43.171 136.2 9.8 134.7 16.4
2001-06-14 10:03:27 51°22.727 3°43.186 136.2 9.8 134.8 16.5
2001-06-14 10:03:32 51°22.718 3°43.202 136 9.8 134.8 16.6
2001-06-14 10:03:37 51°22.708 3°43.217 135.8 9.8 134.7 16
2001-06-14 10:03:42 51°22.699 3°43.233 135.7 9.8 134.5 16.8
2001-06-14 10:03:47 51°22.689 3°43.248 135.7 9.8 134.5 17.3
2001-06-14 10:03:52 51°22.679 3°43.263 136.5 9.8 135 16.3
2001-06-14 10:03:56 51°22.672 3°43.275 137.3 9.8 135.9 16.8
2001-06-14 10:04:02 51°22.66 3°43.293 136.8 9.8 136.2 17.1
2001-06-14 10:04:07 51°22.65 3°43.308 137 9.8 136.2 17.4
2001-06-14 10:04:12 51°22.64 3°43.323 137.5 9.8 136.6 17.7
2001-06-14 10:04:17 51°22.63 3°43.338 137.5 9.8 137.1 17.6
2001-06-14 10:04:22 51°22.62 3°43.353 137.7 9.8 137 16.5
2001-06-14 10:04:26 51°22.612 3°43.364 138.3 9.8 137.5 17
2001-06-14 10:04:32 51°22.601 3°43.382 137 9.8 137.1 17.8
2001-06-14 10:04:37 51°22.591 3°43.397 136.7 9.8 136.1 17.6
2001-06-14 10:04:42 51°22.581 3°43.412 136.5 9.8 136 17.5
2001-06-14 10:04:47 51°22.572 3°43.428 136 9.7 135.4 17.1
2001-06-14 10:04:52 51°22.562 3°43.442 136.8 9.7 135.9 17.4
2001-06-14 10:04:57 51°22.552 3°43.457 136.8 9.7 136 16.7
2001-06-14 10:05:02 51°22.543 3°43.473 136 9.7 135.8 16.9
2001-06-14 10:05:07 51°22.533 3°43.488 135.8 9.7 135.2 16.4
2001-06-14 10:05:12 51°22.524 3°43.503 135.7 9.7 135.2 17.3
2001-06-14 10:05:16 51°22.516 3°43.515 135.5 9.7 135 17.4
2001-06-14 10:05:22 51°22.505 3°43.533 135.7 9.7 135.2 16.7
2001-06-14 10:05:27 51°22.495 3°43.548 136.5 9.7 135.7 16.9
2001-06-14 10:05:32 51°22.485 3°43.563 136.7 9.7 136.1 17.2
2001-06-14 10:05:36 51°22.478 3°43.575 135.8 9.7 135.8 17.2
2001-06-14 10:05:42 51°22.466 3°43.593 135.5 9.7 135.3 17
2001-06-14 10:05:47 51°22.457 3°43.609 135.2 9.7 134.7 16.6
2001-06-14 10:05:52 51°22.448 3°43.624 134.7 9.7 134.3 16.3
2001-06-14 10:05:57 51°22.439 3°43.64 133.3 9.6 133.2 16.6
2001-06-14 10:06:02 51°22.43 3°43.655 133.3 9.6 132.8 16.5
2001-06-14 10:06:07 51°22.42 3°43.67 134.8 9.6 133.7 16.5
2001-06-14 10:06:12 51°22.411 3°43.685 135.7 9.6 134.8 16.9
2001-06-14 10:06:17 51°22.402 3°43.701 134.8 9.6 135 15.9
2001-06-14 10:06:22 51°22.392 3°43.716 134.8 9.6 134.8 16.5
2001-06-14 10:06:27 51°22.383 3°43.731 134.5 9.6 134.7 16.9
2001-06-14 10:06:32 51°22.374 3°43.746 134.3 9.6 134.5 16.8
2001-06-14 10:06:37 51°22.364 3°43.761 134 9.6 134.3 17.1
2001-06-14 10:06:42 51°22.355 3°43.777 133.7 9.6 134.1 17.4
2001-06-14 10:06:46 51°22.347 3°43.789 133.8 9.6 134.1 16.1
2001-06-14 10:06:51 51°22.338 3°43.804 133.7 9.6 134.2 16.6
2001-06-14 10:06:56 51°22.329 3°43.819 133.3 9.6 134.2 17.1
2001-06-14 10:07:02 51°22.317 3°43.838 133.8 9.6 134.2 17
2001-06-14 10:07:07 51°22.308 3°43.852 134.5 9.6 135.1 16.6
2001-06-14 10:07:12 51°22.298 3°43.867 134.5 9.6 135.5 15.3
2001-06-14 10:07:16 51°22.291 3°43.879 134.5 9.6 135.6 16.5
2001-06-14 10:07:22 51°22.279 3°43.897 135.3 9.6 135.9 16.3
2001-06-14 10:07:27 51°22.27 3°43.912 134.8 9.6 136 15.5
2001-06-14 10:07:32 51°22.261 3°43.927 133.2 9.6 134.8 14.4
2001-06-14 10:07:37 51°22.252 3°43.943 132.8 9.6 133.9 16.1
2001-06-14 10:07:42 51°22.242 3°43.958 133.5 9.6 133.8 16.6
2001-06-14 10:07:47 51°22.233 3°43.973 133 9.6 134 16.2
2001-06-14 10:07:52 51°22.224 3°43.989 132.5 9.6 133.7 15.3
2001-06-14 10:07:57 51°22.215 3°44.004 133 9.6 133.9 14.4
2001-06-14 10:08:02 51°22.205 3°44.019 133.8 9.6 134.5 13.8
2001-06-14 10:08:06 51°22.198 3°44.031 134.2 9.6 135.1 14.4
2001-06-14 10:08:12 51°22.186 3°44.048 134.5 9.6 135.7 14
2001-06-14 10:08:17 51°22.177 3°44.063 134.2 9.6 135.7 12.9
2001-06-14 10:08:22 51°22.167 3°44.078 134.7 9.6 135.8 14.2
2001-06-14 10:08:26 51°22.159 3°44.09 134.8 9.6 136.2 14.8
2001-06-14 10:08:32 51°22.148 3°44.107 134 9.6 135.7 15.1
2001-06-14 10:08:36 51°22.14 3°44.12 132.8 9.6 134.4 14.9
2001-06-14 10:08:42 51°22.13 3°44.139 131.5 9.6 133.1 14.4
2001-06-14 10:08:47 51°22.121 3°44.154 130.8 9.6 132 14.1
2001-06-14 10:08:52 51°22.112 3°44.171 131 9.6 131.6 13.8
2001-06-14 10:08:57 51°22.104 3°44.187 130.8 9.6 131.5 13.4
2001-06-14 10:09:02 51°22.095 3°44.203 130 9.6 130.8 14.2
2001-06-14 10:09:07 51°22.087 3°44.22 128.8 9.6 129.6 14.7
2001-06-14 10:09:12 51°22.079 3°44.236 128.5 9.5 129 14.2
2001-06-14 10:09:17 51°22.07 3°44.252 129.5 9.5 129.6 13.2
2001-06-14 10:09:22 51°22.061 3°44.268 130 9.5 130.7 13.2
2001-06-14 10:09:27 51°22.053 3°44.284 130.2 9.6 130.9 14.4
2001-06-14 10:09:32 51°22.044 3°44.3 130.8 9.6 131.6 14.5
2001-06-14 10:09:36 51°22.037 3°44.313 131.3 9.6 132.1 14.5
2001-06-14 10:09:41 51°22.028 3°44.328 131.2 9.6 132.5 13.8
2001-06-14 10:09:46 51°22.019 3°44.344 132 9.6 133.2 13.2
2001-06-14 10:09:52 51°22.007 3°44.362 132.8 9.6 134 14.3
2001-06-14 10:09:57 51°21.998 3°44.377 133.3 9.6 135 14.6
2001-06-14 10:10:02 51°21.988 3°44.392 133.2 9.6 135.1 14
2001-06-14 10:10:07 51°21.978 3°44.408 132.8 9.7 134.6 13.2
2001-06-14 10:10:12 51°21.969 3°44.423 131.3 9.7 133.9 13.9
2001-06-14 10:10:17 51°21.961 3°44.439 130 9.6 132 13
2001-06-14 10:10:22 51°21.952 3°44.455 130.3 9.6 131.9 14.8
2001-06-14 10:10:27 51°21.943 3°44.471 131.3 9.6 132.4 15
2001-06-14 10:10:32 51°21.934 3°44.486 131.7 9.6 133 14.6
2001-06-14 10:10:37 51°21.925 3°44.502 131.3 9.6 132.9 13.1
2001-06-14 10:10:42 51°21.916 3°44.517 131.2 9.6 132.7 13.4
2001-06-14 10:10:47 51°21.907 3°44.533 130.7 9.6 132.3 14.4
2001-06-14 10:10:52 51°21.898 3°44.549 130.5 9.6 132.1 14.8
2001-06-14 10:10:56 51°21.891 3°44.562 130.3 9.6 131.9 14.4
2001-06-14 10:11:02 51°21.88 3°44.581 130.2 9.6 131.9 12.6
2001-06-14 10:11:07 51°21.871 3°44.597 130.5 9.6 131.9 14.2
2001-06-14 10:11:12 51°21.862 3°44.613 131.3 9.6 132.5 14.9
2001-06-14 10:11:17 51°21.853 3°44.628 131.5 9.7 132.9 14.8
2001-06-14 10:11:21 51°21.846 3°44.641 131 9.7 133 14.5
2001-06-14 10:11:26 51°21.836 3°44.657 131.3 9.7 132.9 13.1
2001-06-14 10:11:32 51°21.825 3°44.675 131.8 9.7 133.3 13.8
2001-06-14 10:11:37 51°21.816 3°44.691 131.2 9.7 133.1 15.2
2001-06-14 10:11:42 51°21.807 3°44.707 130.5 9.7 132.7 15.2
2001-06-14 10:11:47 51°21.798 3°44.723 130.5 9.7 132.1 14.8
2001-06-14 10:11:52 51°21.79 3°44.739 130 9.7 131.8 13.7
2001-06-14 10:11:57 51°21.781 3°44.755 130.3 9.7 131.6 13.1
2001-06-14 10:12:02 51°21.772 3°44.771 129.8 9.7 131.8 13.6
2001-06-14 10:12:07 51°21.763 3°44.787 129.3 9.7 131 14.3
2001-06-14 10:12:12 51°21.754 3°44.804 129.5 9.7 131.1 14.4
2001-06-14 10:12:16 51°21.748 3°44.817 129.2 9.7 130.7 13.4
2001-06-14 10:12:22 51°21.737 3°44.837 128.2 9.7 129.7 13.9
2001-06-14 10:12:27 51°21.729 3°44.853 127.8 9.7 129.3 15.1
2001-06-14 10:12:32 51°21.72 3°44.87 127.7 9.7 129 14.6
2001-06-14 10:12:36 51°21.714 3°44.883 127.7 9.7 128.9 15.9
2001-06-14 10:12:42 51°21.703 3°44.903 127.8 9.7 128.9 15.8
2001-06-14 10:12:47 51°21.695 3°44.92 127.7 9.7 129.1 14.9
2001-06-14 10:12:52 51°21.686 3°44.937 128 9.7 129.2 13.7
2001-06-14 10:12:57 51°21.678 3°44.953 128.2 9.7 129.5 13
2001-06-14 10:13:02 51°21.669 3°44.97 128 9.7 129.2 14.2
2001-06-14 10:13:07 51°21.661 3°44.987 126.7 9.7 128.2 15.3
2001-06-14 10:13:12 51°21.654 3°45.005 125 9.7 126.8 15.1
2001-06-14 10:13:17 51°21.646 3°45.023 123.7 9.6 124.5 15
2001-06-14 10:13:22 51°21.639 3°45.04 123 9.6 123.7 14.2
2001-06-14 10:13:27 51°21.632 3°45.058 123 9.6 123.3 14
2001-06-14 10:13:32 51°21.624 3°45.076 123.5 9.6 123.8 14.1
2001-06-14 10:13:37 51°21.617 3°45.093 123.5 9.6 124.1 13.4
2001-06-14 10:13:42 51°21.609 3°45.111 123.8 9.6 124 12.8
2001-06-14 10:13:46 51°21.603 3°45.125 123.7 9.6 124.4 14.7
2001-06-14 10:13:52 51°21.594 3°45.146 123.5 9.6 124.1 14.7
2001-06-14 10:13:57 51°21.587 3°45.164 124 9.6 124.6 14.2
2001-06-14 10:14:02 51°21.579 3°45.181 124.5 9.6 124.9 13.9
2001-06-14 10:14:07 51°21.571 3°45.199 124.3 9.7 125.3 13.3
2001-06-14 10:14:12 51°21.564 3°45.216 123.7 9.7 125.1 12.9
2001-06-14 10:14:16 51°21.558 3°45.23 123.5 9.7 124.5 12.6
2001-06-14 10:14:22 51°21.549 3°45.252 123.3 9.7 124.5 13.5
2001-06-14 10:14:27 51°21.541 3°45.269 123 9.7 124.1 13.3
2001-06-14 10:14:32 51°21.534 3°45.287 122.5 9.7 123.9 12.8
2001-06-14 10:14:37 51°21.526 3°45.305 122.5 9.7 123.8 12.1
2001-06-14 10:14:42 51°21.519 3°45.323 123 9.7 124.4 11.9
2001-06-14 10:14:47 51°21.511 3°45.34 122.8 9.7 124.6 12.5
2001-06-14 10:14:52 51°21.503 3°45.358 122.5 9.7 124.3 12.5
2001-06-14 10:14:56 51°21.497 3°45.372 122.3 9.7 124.1 12.2
2001-06-14 10:15:02 51°21.488 3°45.394 123.2 9.7 124.2 11.3
2001-06-14 10:15:06 51°21.482 3°45.408 123.3 9.8 124.6 11.5
2001-06-14 10:15:12 51°21.473 3°45.43 122.7 9.8 124.4 12.5
2001-06-14 10:15:17 51°21.466 3°45.448 121.2 9.7 122.9 12.6
2001-06-14 10:15:22 51°21.459 3°45.466 120.7 9.7 122 12.7
2001-06-14 10:15:26 51°21.453 3°45.481 119.5 9.7 120.7 12.3
2001-06-14 10:15:32 51°21.446 3°45.504 117.8 9.7 119.4 12.1
2001-06-14 10:15:37 51°21.44 3°45.523 117 9.7 117.9 12.2
2001-06-14 10:15:42 51°21.434 3°45.542 116.5 9.7 117.3 12.3
2001-06-14 10:15:47 51°21.428 3°45.561 116.2 9.7 116.7 12
2001-06-14 10:15:52 51°21.422 3°45.581 115.5 9.7 116.2 11.8
2001-06-14 10:15:57 51°21.417 3°45.6 114.2 9.7 114.6 11.9
2001-06-14 10:16:02 51°21.412 3°45.62 112.8 9.7 113.2 12
2001-06-14 10:16:07 51°21.407 3°45.64 111.2 9.6 111 12.2
2001-06-14 10:16:12 51°21.403 3°45.66 110.5 9.6 110.2 12.1
2001-06-14 10:16:17 51°21.399 3°45.68 111 9.6 110 12
2001-06-14 10:16:22 51°21.394 3°45.7 111.5 9.6 110.7 11.9
2001-06-14 10:16:27 51°21.389 3°45.72 110.8 9.6 110.5 11.7
2001-06-14 10:16:32 51°21.385 3°45.74 110.5 9.6 109.9 11.6
2001-06-14 10:16:37 51°21.38 3°45.76 110.3 9.6 109.9 11.7
2001-06-14 10:16:42 51°21.376 3°45.78 109.8 9.6 109.6 11.8
2001-06-14 10:16:46 51°21.372 3°45.796 109.7 9.6 109.3 11.8
2001-06-14 10:16:52 51°21.367 3°45.821 109.8 9.6 109.2 12.1
2001-06-14 10:16:57 51°21.363 3°45.841 109.5 9.7 109 12.5
2001-06-14 10:17:02 51°21.359 3°45.861 108.8 9.7 108.5 12.6
2001-06-14 10:17:07 51°21.355 3°45.882 108.8 9.7 108.1 12.7
2001-06-14 10:17:12 51°21.35 3°45.902 109 9.7 107.9 12.8
2001-06-14 10:17:17 51°21.346 3°45.923 108.2 9.7 107.6 13.3
2001-06-14 10:17:22 51°21.342 3°45.944 107.2 9.7 106.7 13.4
2001-06-14 10:17:27 51°21.338 3°45.964 107.2 9.7 106.2 13.7
2001-06-14 10:17:32 51°21.335 3°45.985 107.2 9.7 105.7 14
2001-06-14 10:17:37 51°21.332 3°46.006 105.5 9.7 104.6 14
2001-06-14 10:17:42 51°21.329 3°46.027 104.2 9.7 102.7 14.4
2001-06-14 10:17:46 51°21.327 3°46.043 103.5 9.7 102 14.5
2001-06-14 10:17:52 51°21.324 3°46.068 103.5 9.7 101.4 14.6
2001-06-14 10:17:56 51°21.322 3°46.085 103.5 9.7 101.5 14.9
2001-06-14 10:18:02 51°21.319 3°46.11 103.5 9.7 101.4 14.8
2001-06-14 10:18:07 51°21.316 3°46.131 104.2 9.7 101.8 15.1
2001-06-14 10:18:12 51°21.314 3°46.152 104 9.7 101.7 15
2001-06-14 10:18:17 51°21.311 3°46.173 103.3 9.6 101.1 15.2